createdAt,value
2022-11-02T00:00:20.860Z,4.00
2022-11-02T00:02:47.168Z,4.15
2022-11-02T00:05:14.119Z,3.95
2022-11-02T00:07:43.471Z,3.17
2022-11-02T00:10:10.276Z,3.10
2022-11-02T00:12:36.930Z,2.83
2022-11-02T00:15:03.668Z,2.85
2022-11-02T00:17:30.335Z,3.17
2022-11-02T00:19:56.762Z,2.50
2022-11-02T00:22:23.238Z,2.70
2022-11-02T00:24:49.517Z,2.83
2022-11-02T00:27:15.833Z,2.85
2022-11-02T00:29:42.096Z,2.92
2022-11-02T00:32:08.398Z,2.63
2022-11-02T00:34:34.665Z,3.35
2022-11-02T00:37:00.958Z,2.75
2022-11-02T00:39:27.224Z,3.42
2022-11-02T00:41:53.551Z,2.75
2022-11-02T00:44:19.840Z,3.08
2022-11-02T00:46:46.340Z,2.70
2022-11-02T00:49:12.658Z,2.47
2022-11-02T00:51:39.005Z,3.00
2022-11-02T00:54:05.344Z,3.50
2022-11-02T00:56:33.097Z,3.22
2022-11-02T00:59:02.100Z,2.95
2022-11-02T01:01:28.487Z,2.70
2022-11-02T01:03:56.127Z,2.92
2022-11-02T01:06:22.498Z,3.10
2022-11-02T01:08:48.882Z,2.20
2022-11-02T01:11:18.699Z,2.47
2022-11-02T01:13:45.279Z,2.42
2022-11-02T01:16:12.351Z,2.70
2022-11-02T01:18:39.265Z,2.92
2022-11-02T01:21:06.108Z,3.13
2022-11-02T01:23:33.635Z,2.53
2022-11-02T01:26:09.973Z,2.53
2022-11-02T01:28:36.667Z,2.60
2022-11-02T01:31:03.113Z,2.53
2022-11-02T01:33:29.532Z,2.47
2022-11-02T01:35:55.844Z,2.75
2022-11-02T01:38:22.979Z,2.50
2022-11-02T01:40:49.278Z,2.60
2022-11-02T01:43:26.600Z,2.90
2022-11-02T01:45:59.688Z,2.55
2022-11-02T01:48:36.604Z,2.60
2022-11-02T01:51:05.695Z,2.85
2022-11-02T01:53:33.607Z,2.38
2022-11-02T01:56:00.947Z,2.78
2022-11-02T01:58:27.472Z,2.65
2022-11-02T02:00:54.751Z,2.80
2022-11-02T02:03:21.330Z,2.40
2022-11-02T02:05:57.758Z,2.60
2022-11-02T02:08:25.054Z,2.50
2022-11-02T02:10:51.324Z,3.20
2022-11-02T02:13:18.583Z,2.70
2022-11-02T02:16:05.394Z,2.63
2022-11-02T02:18:31.664Z,2.70
2022-11-02T02:21:02.448Z,2.30
2022-11-02T02:23:51.618Z,2.65
2022-11-02T02:26:31.136Z,3.22
2022-11-02T02:29:02.779Z,2.30
2022-11-02T02:31:44.773Z,2.90
2022-11-02T02:34:17.091Z,3.47
2022-11-02T02:36:49.809Z,2.83
2022-11-02T02:39:19.647Z,3.40
2022-11-02T02:41:54.752Z,3.53
2022-11-02T02:44:22.855Z,3.70
2022-11-02T02:46:57.478Z,4.15
2022-11-02T02:49:33.477Z,3.92
2022-11-02T02:52:01.654Z,4.35
2022-11-02T02:54:39.382Z,4.35
2022-11-02T02:57:10.808Z,4.82
2022-11-02T02:59:44.056Z,5.28
2022-11-02T03:02:16.085Z,4.75
2022-11-02T03:04:42.555Z,5.20
2022-11-02T03:07:11.264Z,5.00
2022-11-02T03:09:43.927Z,5.00
2022-11-02T03:12:16.769Z,4.60
2022-11-02T03:14:52.994Z,5.07
2022-11-02T03:17:32.386Z,4.60
2022-11-02T03:20:04.689Z,5.10
2022-11-02T03:22:39.161Z,4.95
2022-11-02T03:25:18.249Z,5.25
2022-11-02T03:27:56.603Z,4.80
2022-11-02T03:30:23.935Z,4.53
2022-11-02T03:33:02.393Z,4.40
2022-11-02T03:35:35.263Z,4.47
2022-11-02T03:38:05.230Z,4.13
2022-11-02T03:40:35.319Z,4.75
2022-11-02T03:43:03.987Z,4.38
2022-11-02T03:45:35.411Z,4.25
2022-11-02T03:48:04.338Z,4.22
2022-11-02T03:50:32.570Z,3.95
2022-11-02T03:53:06.417Z,3.67
2022-11-02T03:55:37.542Z,3.70
2022-11-02T03:58:04.542Z,3.13
2022-11-02T04:00:35.898Z,3.30
2022-11-02T04:03:07.103Z,3.20
2022-11-02T04:05:38.111Z,3.30
2022-11-02T04:08:21.791Z,3.00
2022-11-02T04:11:16.784Z,3.10
2022-11-02T04:14:03.840Z,3.58
2022-11-02T04:16:35.134Z,3.00
2022-11-02T04:19:24.124Z,3.42
2022-11-02T04:22:18.226Z,3.83
2022-11-02T04:25:07.159Z,4.07
2022-11-02T04:27:35.377Z,4.97
2022-11-02T04:30:03.505Z,4.55
2022-11-02T04:33:01.572Z,4.60
2022-11-02T04:35:31.407Z,4.65
2022-11-02T04:38:17.060Z,4.70
2022-11-02T04:40:44.623Z,4.78
2022-11-02T04:43:11.087Z,4.43
2022-11-02T04:45:38.108Z,4.35
2022-11-02T04:48:08.376Z,4.03
2022-11-02T04:50:36.254Z,4.28
2022-11-02T04:53:03.843Z,3.35
2022-11-02T04:55:31.759Z,3.60
2022-11-02T04:57:59.081Z,3.40
2022-11-02T05:00:26.311Z,3.22
2022-11-02T05:02:53.459Z,4.43
2022-11-02T05:05:21.811Z,4.70
2022-11-02T05:07:50.489Z,5.03
2022-11-02T05:10:17.568Z,5.00
2022-11-02T05:12:45.709Z,5.50
2022-11-02T05:15:13.130Z,4.72
2022-11-02T05:17:39.488Z,4.10
2022-11-02T05:20:07.078Z,4.60
2022-11-02T05:22:33.473Z,4.18
2022-11-02T05:24:59.798Z,3.67
2022-11-02T05:27:27.090Z,4.10
2022-11-02T05:29:53.388Z,4.70
2022-11-02T05:32:19.728Z,3.88
2022-11-02T05:34:46.828Z,4.38
2022-11-02T05:37:14.081Z,4.22
2022-11-02T05:39:40.374Z,4.32
2022-11-02T05:42:06.753Z,4.25
2022-11-02T05:44:33.137Z,5.68
2022-11-02T05:46:59.736Z,5.95
2022-11-02T05:49:26.051Z,5.10
2022-11-02T05:51:52.367Z,4.35
2022-11-02T05:54:18.854Z,4.88
2022-11-02T05:56:45.180Z,4.20
2022-11-02T05:59:11.515Z,4.90
2022-11-02T06:01:37.831Z,6.00
2022-11-02T06:04:04.389Z,5.05
2022-11-02T06:06:30.980Z,4.75
2022-11-02T06:08:57.521Z,5.00
2022-11-02T06:11:25.205Z,4.75
2022-11-02T06:13:51.618Z,4.53
2022-11-02T06:16:22.772Z,4.63
2022-11-02T06:18:49.470Z,4.68
2022-11-02T06:21:15.870Z,5.07
2022-11-02T06:23:43.110Z,4.70
2022-11-02T06:26:09.519Z,4.47
2022-11-02T06:28:35.787Z,4.15
2022-11-02T06:31:02.363Z,3.92
2022-11-02T06:33:29.737Z,4.28
2022-11-02T06:35:56.072Z,3.88
2022-11-02T06:38:24.697Z,4.15
2022-11-02T06:40:54.982Z,3.88
2022-11-02T06:43:21.512Z,4.10
2022-11-02T06:45:48.048Z,3.90
2022-11-02T06:48:14.344Z,5.28
2022-11-02T06:50:40.708Z,5.82
2022-11-02T06:53:07.430Z,6.10
2022-11-02T06:55:34.009Z,5.53
2022-11-02T06:58:00.394Z,5.22
2022-11-02T07:00:26.718Z,3.90
2022-11-02T07:03:00.107Z,4.40
2022-11-02T07:05:26.516Z,4.40
2022-11-02T07:07:53.448Z,4.43
2022-11-02T07:10:19.713Z,4.25
2022-11-02T07:12:45.975Z,4.30
2022-11-02T07:15:12.259Z,3.40
2022-11-02T07:17:41.563Z,3.47
2022-11-02T07:20:10.544Z,5.90
2022-11-02T07:22:37.439Z,4.10
2022-11-02T07:25:03.951Z,3.47
2022-11-02T07:27:30.270Z,3.72
2022-11-02T07:29:56.584Z,3.20
2022-11-02T07:32:22.839Z,3.58
2022-11-02T07:34:49.162Z,3.78
2022-11-02T07:37:15.443Z,2.47
2022-11-02T07:39:41.893Z,2.67
2022-11-02T07:42:08.243Z,2.72
2022-11-02T07:44:34.587Z,2.80
2022-11-02T07:47:01.498Z,2.88
2022-11-02T07:49:27.807Z,4.57
2022-11-02T07:51:55.479Z,3.58
2022-11-02T07:54:21.739Z,4.00
2022-11-02T07:56:48.071Z,2.90
2022-11-02T07:59:14.339Z,3.25
2022-11-02T08:01:40.682Z,2.67
2022-11-02T08:04:07.017Z,2.75
2022-11-02T08:06:34.249Z,3.25
2022-11-02T08:09:00.731Z,4.22
2022-11-02T08:11:26.990Z,2.50
2022-11-02T08:13:53.264Z,2.60
2022-11-02T08:16:19.611Z,2.50
2022-11-02T08:18:45.896Z,2.97
2022-11-02T08:21:12.220Z,2.22
2022-11-02T08:23:38.495Z,4.15
2022-11-02T08:26:04.856Z,3.30
2022-11-02T08:28:32.282Z,2.60
2022-11-02T08:30:58.954Z,2.30
2022-11-02T08:33:25.244Z,2.72
2022-11-02T08:35:53.052Z,3.03
2022-11-02T08:38:22.473Z,3.08
2022-11-02T08:40:49.643Z,2.63
2022-11-02T08:43:16.007Z,2.25
2022-11-02T08:46:13.367Z,2.38
2022-11-02T08:48:30.212Z,3.63
2022-11-02T08:50:56.519Z,2.63
2022-11-02T08:53:23.091Z,2.50
2022-11-02T08:55:49.524Z,2.60
2022-11-02T08:58:16.250Z,2.97
2022-11-02T09:00:42.742Z,2.60
2022-11-02T09:03:13.844Z,2.42
2022-11-02T09:05:44.835Z,2.90
2022-11-02T09:08:13.617Z,2.47
2022-11-02T09:10:40.487Z,3.05
2022-11-02T09:13:08.011Z,2.92
2022-11-02T09:15:36.261Z,2.63
2022-11-02T09:18:03.907Z,2.58
2022-11-02T09:20:31.191Z,2.63
2022-11-02T09:22:58.248Z,2.50
2022-11-02T09:25:25.183Z,3.50
2022-11-02T09:27:55.945Z,3.05
2022-11-02T09:30:23.238Z,2.60
2022-11-02T09:32:56.150Z,2.30
2022-11-02T09:35:23.280Z,2.42
2022-11-02T09:37:51.024Z,2.38
2022-11-02T09:40:22.565Z,2.97
2022-11-02T09:43:04.761Z,2.60
2022-11-02T09:45:36.639Z,2.90
2022-11-02T09:48:17.148Z,2.78
2022-11-02T09:50:46.215Z,3.05
2022-11-02T09:53:17.093Z,4.30
2022-11-02T09:55:46.872Z,2.63
2022-11-02T09:58:16.814Z,2.75
2022-11-02T10:00:45.482Z,4.78
2022-11-02T10:03:28.176Z,3.20
2022-11-02T10:06:06.739Z,2.75
2022-11-02T10:08:56.059Z,2.42
2022-11-02T10:11:41.460Z,2.95
2022-11-02T10:14:14.968Z,2.17
2022-11-02T10:16:55.265Z,2.75
2022-11-02T10:19:24.874Z,2.95
2022-11-02T10:21:56.463Z,2.90
2022-11-02T10:24:33.407Z,2.35
2022-11-02T10:27:01.089Z,2.45
2022-11-02T10:29:27.647Z,2.80
2022-11-02T10:31:54.196Z,2.22
2022-11-02T10:34:20.503Z,2.65
2022-11-02T10:36:58.938Z,2.35
2022-11-02T10:39:30.252Z,3.00
2022-11-02T10:42:05.027Z,2.15
2022-11-02T10:44:34.618Z,3.50
2022-11-02T10:47:00.925Z,2.38
2022-11-02T10:49:44.787Z,2.78
2022-11-02T10:52:13.851Z,3.28
2022-11-02T10:54:40.224Z,2.85
2022-11-02T10:57:14.689Z,3.33
2022-11-02T10:59:41.027Z,2.45
2022-11-02T11:02:11.730Z,2.40
2022-11-02T11:04:38.008Z,2.70
2022-11-02T11:07:06.191Z,2.80
2022-11-02T11:09:51.080Z,2.70
2022-11-02T11:12:22.124Z,2.58
2022-11-02T11:20:32.997Z,5.53
2022-11-02T11:23:15.360Z,3.75
2022-11-02T11:25:41.966Z,2.85
2022-11-02T11:28:21.831Z,3.05
2022-11-02T11:31:05.854Z,5.30
2022-11-02T11:33:33.490Z,4.55
2022-11-02T11:36:00.124Z,2.45
2022-11-02T11:38:27.233Z,3.17
2022-11-02T11:40:54.940Z,1.70
2022-11-02T11:43:30.214Z,2.40
2022-11-02T11:46:03.720Z,2.65
2022-11-02T11:48:35.210Z,2.15
2022-11-02T11:51:02.515Z,2.70
2022-11-02T11:53:29.129Z,3.33
2022-11-02T11:55:58.154Z,2.28
2022-11-02T11:58:25.477Z,3.33
2022-11-02T12:01:15.315Z,2.75
2022-11-02T12:03:53.029Z,2.25
2022-11-02T12:06:38.296Z,2.53
2022-11-02T12:09:16.838Z,2.15
2022-11-02T12:12:00.480Z,2.08
2022-11-02T12:14:39.013Z,2.05
2022-11-02T12:17:06.499Z,2.40
2022-11-02T12:19:43.095Z,2.00
2022-11-02T12:22:22.207Z,2.17
2022-11-02T12:25:03.975Z,2.50
2022-11-02T12:27:41.449Z,2.67
2022-11-02T12:30:11.972Z,2.53
2022-11-02T12:32:57.212Z,2.53
2022-11-02T12:35:32.854Z,2.28
2022-11-02T12:38:17.926Z,1.40
2022-11-02T12:40:44.333Z,1.98
2022-11-02T12:43:22.519Z,2.13
2022-11-02T12:46:04.161Z,2.03
2022-11-02T12:48:43.007Z,1.65
2022-11-02T12:51:14.583Z,2.13
2022-11-02T12:53:40.875Z,1.77
2022-11-02T12:56:10.327Z,2.08
2022-11-02T12:58:38.585Z,1.80
2022-11-02T13:01:13.895Z,2.05
2022-11-02T13:03:43.390Z,1.23
2022-11-02T13:06:11.791Z,1.48
2022-11-02T13:08:56.440Z,1.40
2022-11-02T13:11:25.481Z,2.10
2022-11-02T13:13:55.758Z,1.90
2022-11-02T13:16:25.859Z,2.25
2022-11-02T13:18:53.275Z,2.80
2022-11-02T13:21:27.496Z,1.70
2022-11-02T13:23:56.485Z,1.55
2022-11-02T13:26:28.198Z,1.75
2022-11-02T13:29:02.065Z,1.50
2022-11-02T13:31:30.664Z,2.15
2022-11-02T13:34:00.114Z,2.28
2022-11-02T13:36:26.577Z,2.35
2022-11-02T13:38:52.823Z,3.22
2022-11-02T13:41:19.996Z,2.15
2022-11-02T13:43:51.456Z,2.55
2022-11-02T13:46:33.107Z,2.00
2022-11-02T13:48:59.436Z,2.17
2022-11-02T13:51:30.812Z,1.52
2022-11-02T13:54:03.253Z,1.92
2022-11-02T13:56:29.951Z,1.52
2022-11-02T13:59:04.249Z,1.98
2022-11-02T14:01:32.082Z,1.83
2022-11-02T14:04:03.837Z,1.70
2022-11-02T14:06:31.918Z,1.80
2022-11-02T14:09:00.563Z,2.30
2022-11-02T14:11:32.550Z,2.05
2022-11-02T14:14:11.085Z,2.70
2022-11-02T14:16:45.174Z,2.10
2022-11-02T14:21:40.057Z,2.53
2022-11-02T14:24:26.280Z,2.33
2022-11-02T14:26:54.160Z,2.15
2022-11-02T14:29:39.853Z,1.83
2022-11-02T14:32:19.735Z,2.00
2022-11-02T14:35:04.861Z,1.77
2022-11-02T14:37:48.643Z,1.83
2022-11-02T14:40:33.744Z,1.73
2022-11-02T14:43:16.810Z,2.00
2022-11-02T14:45:43.110Z,2.30
2022-11-02T14:48:19.007Z,2.40
2022-11-02T14:51:02.017Z,2.67
2022-11-02T14:53:29.377Z,1.90
2022-11-02T14:55:56.328Z,1.95
2022-11-02T14:58:37.679Z,2.40
2022-11-02T15:01:04.537Z,2.10
2022-11-02T15:03:35.882Z,1.95
2022-11-02T15:06:07.768Z,3.72
2022-11-02T15:08:36.119Z,1.58
2022-11-02T15:11:21.190Z,2.20
2022-11-02T15:13:48.060Z,1.73
2022-11-02T15:16:15.104Z,1.83
2022-11-02T15:18:41.567Z,1.77
2022-11-02T15:21:10.688Z,2.00
2022-11-02T15:23:43.250Z,2.47
2022-11-02T15:26:14.274Z,2.67
2022-11-02T15:28:43.234Z,2.30
2022-11-02T15:31:16.018Z,2.25
2022-11-02T15:33:43.764Z,2.35
2022-11-02T15:36:16.658Z,2.38
2022-11-02T15:38:46.370Z,1.85
2022-11-02T15:41:27.759Z,1.83
2022-11-02T15:44:06.428Z,1.77
2022-11-02T15:46:47.971Z,1.55
2022-11-02T15:49:14.227Z,1.92
2022-11-02T15:52:03.902Z,2.10
2022-11-02T15:54:36.187Z,1.70
2022-11-02T15:57:02.463Z,2.22
2022-11-02T15:59:41.630Z,2.03
2022-11-02T16:02:12.257Z,2.45
2022-11-02T16:04:38.786Z,1.90
2022-11-02T16:07:06.812Z,2.47
2022-11-02T16:09:34.570Z,1.80
2022-11-02T16:12:04.012Z,2.30
2022-11-02T16:14:31.530Z,2.38
2022-11-02T16:16:57.892Z,1.90
2022-11-02T16:19:24.226Z,2.35
2022-11-02T16:21:50.639Z,2.03
2022-11-02T16:24:17.286Z,2.00
2022-11-02T16:26:44.774Z,2.20
2022-11-02T16:29:11.810Z,2.00
2022-11-02T16:31:40.374Z,1.90
2022-11-02T16:34:24.141Z,1.80
2022-11-02T16:36:50.630Z,2.10
2022-11-02T16:39:31.813Z,2.35
2022-11-02T16:41:59.075Z,3.22
2022-11-02T16:44:29.767Z,3.25
2022-11-02T16:47:09.381Z,2.50
2022-11-02T16:49:56.353Z,3.10
2022-11-02T16:52:26.844Z,3.10
2022-11-02T16:54:53.159Z,2.63
2022-11-02T16:57:21.387Z,2.80
2022-11-02T16:59:50.801Z,3.10
2022-11-02T17:02:17.566Z,2.85
2022-11-02T17:04:45.187Z,2.78
2022-11-02T17:07:17.793Z,3.05
2022-11-02T17:09:44.135Z,2.78
2022-11-02T17:12:14.423Z,3.25
2022-11-02T17:14:42.633Z,3.08
2022-11-02T17:17:28.927Z,3.03
2022-11-02T17:19:56.531Z,2.70
2022-11-02T17:22:24.782Z,3.20
2022-11-02T17:25:11.335Z,2.80
2022-11-02T17:27:42.119Z,3.80
2022-11-02T17:30:29.167Z,3.95
2022-11-02T17:32:58.933Z,4.60
2022-11-02T17:35:27.378Z,4.32
2022-11-02T17:37:53.950Z,6.28
2022-11-02T17:40:21.699Z,6.25
2022-11-02T17:43:00.683Z,6.10
2022-11-02T17:45:28.561Z,6.97
2022-11-02T17:47:55.834Z,6.50
2022-11-02T17:50:22.574Z,5.03
2022-11-02T17:52:48.997Z,6.30
2022-11-02T17:55:16.635Z,5.43
2022-11-02T17:57:43.052Z,6.35
2022-11-02T18:00:09.589Z,5.75
2022-11-02T18:02:38.588Z,4.82
2022-11-02T18:05:10.870Z,5.25
2022-11-02T18:07:37.118Z,5.95
2022-11-02T18:10:03.512Z,5.63
2022-11-02T18:12:29.764Z,5.00
2022-11-02T18:14:56.046Z,5.65
2022-11-02T18:17:22.304Z,7.30
2022-11-02T18:19:48.588Z,7.05
2022-11-02T18:22:15.465Z,6.50
2022-11-02T18:24:41.818Z,6.38
2022-11-02T18:27:08.094Z,5.88
2022-11-02T18:29:34.420Z,5.55
2022-11-02T18:32:00.695Z,6.70
2022-11-02T18:34:27.252Z,6.13
2022-11-02T18:36:53.548Z,5.85
2022-11-02T18:39:19.823Z,5.78
2022-11-02T18:41:46.202Z,7.55
2022-11-02T18:44:15.608Z,8.45
2022-11-02T18:46:42.346Z,6.43
2022-11-02T18:49:08.823Z,5.95
2022-11-02T18:51:35.159Z,5.53
2022-11-02T18:54:02.688Z,6.53
2022-11-02T18:56:29.284Z,11.85
2022-11-02T18:58:56.241Z,12.50
2022-11-02T19:01:23.410Z,8.82
2022-11-02T19:03:53.936Z,8.82
2022-11-02T19:06:38.965Z,6.30
2022-11-02T19:09:18.276Z,5.95
2022-11-02T19:11:45.879Z,4.57
2022-11-02T19:14:12.270Z,4.60
2022-11-02T19:16:38.556Z,4.95
2022-11-02T19:19:04.904Z,5.13
2022-11-02T19:21:31.196Z,5.63
2022-11-02T19:23:57.467Z,7.43
2022-11-02T19:28:55.070Z,6.07
2022-11-02T19:31:21.756Z,6.05
2022-11-02T19:33:48.615Z,6.20
2022-11-02T19:36:15.152Z,6.30
2022-11-02T19:38:41.432Z,7.03
2022-11-02T19:41:11.837Z,6.40
2022-11-02T19:43:38.795Z,7.05
2022-11-02T19:46:06.006Z,7.38
2022-11-02T19:48:33.208Z,6.70
2022-11-02T19:51:06.557Z,6.85
2022-11-02T19:53:32.972Z,7.00
2022-11-02T19:55:59.243Z,8.02
2022-11-02T19:58:26.189Z,6.65
2022-11-02T20:00:52.473Z,5.90
2022-11-02T20:03:18.869Z,5.80
2022-11-02T20:05:47.381Z,6.97
2022-11-02T20:08:14.513Z,6.05
2022-11-02T20:10:41.476Z,5.03
2022-11-02T20:13:08.036Z,5.65
2022-11-02T20:15:39.530Z,5.30
2022-11-02T20:18:18.790Z,5.07
2022-11-02T20:20:46.103Z,5.10
2022-11-02T20:23:13.023Z,4.97
2022-11-02T20:25:39.340Z,4.65
2022-11-02T20:28:05.878Z,7.10
2022-11-02T20:30:32.517Z,7.55
2022-11-02T20:32:58.799Z,8.63
2022-11-02T20:35:25.839Z,8.70
2022-11-02T20:37:53.331Z,5.72
2022-11-02T20:40:19.664Z,5.15
2022-11-02T20:42:47.750Z,4.93
2022-11-02T20:45:16.106Z,3.90
2022-11-02T20:47:42.471Z,3.40
2022-11-02T20:50:12.855Z,4.00
2022-11-02T20:52:43.899Z,5.00
2022-11-02T20:55:10.274Z,9.68
2022-11-02T20:57:37.769Z,17.42
2022-11-02T21:00:04.777Z,11.43
2022-11-02T21:02:31.125Z,6.88
2022-11-02T21:04:57.523Z,6.57
2022-11-02T21:07:23.786Z,6.82
2022-11-02T21:09:50.133Z,7.40
2022-11-02T21:12:35.166Z,6.22
2022-11-02T21:15:02.110Z,5.32
2022-11-02T21:17:28.416Z,4.82
2022-11-02T21:19:58.384Z,5.15
2022-11-02T21:22:34.379Z,5.20
2022-11-02T21:25:00.722Z,3.90
2022-11-02T21:27:27.181Z,3.38
2022-11-02T21:29:53.461Z,3.75
2022-11-02T21:32:19.717Z,3.50
2022-11-02T21:34:45.984Z,3.63
2022-11-02T21:37:12.268Z,3.20
2022-11-02T21:39:39.588Z,3.30
2022-11-02T21:42:05.912Z,4.53
2022-11-02T21:44:32.235Z,4.57
2022-11-02T21:46:58.501Z,4.55
2022-11-02T21:49:24.853Z,4.38
2022-11-02T21:51:51.151Z,4.03
2022-11-02T21:54:17.410Z,3.47
2022-11-02T21:56:43.737Z,3.75
2022-11-02T21:59:10.114Z,3.90
2022-11-02T22:01:46.886Z,2.88
2022-11-02T22:04:31.815Z,2.70
2022-11-02T22:06:59.338Z,2.90
2022-11-02T22:09:26.020Z,2.92
2022-11-02T22:12:10.941Z,3.15
2022-11-02T22:14:37.793Z,2.97
2022-11-02T22:17:16.010Z,3.13
2022-11-02T22:19:50.798Z,3.00
2022-11-02T22:22:17.397Z,4.60
2022-11-02T22:24:45.062Z,4.25
2022-11-02T22:27:11.630Z,3.08
2022-11-02T22:29:37.930Z,3.17
2022-11-02T22:32:04.495Z,3.70
2022-11-02T22:34:31.007Z,3.75
2022-11-02T22:37:17.259Z,4.10
2022-11-02T22:39:43.675Z,4.28
2022-11-02T22:42:09.983Z,4.05
2022-11-02T22:44:36.264Z,3.90
2022-11-02T22:47:02.539Z,4.47
2022-11-02T22:49:28.817Z,5.43
2022-11-02T22:51:55.120Z,6.65
2022-11-02T22:54:21.386Z,6.30
2022-11-02T22:56:48.525Z,4.88
2022-11-02T22:59:15.042Z,4.60
2022-11-02T23:01:42.053Z,3.75
2022-11-02T23:04:09.859Z,3.45
2022-11-02T23:06:36.207Z,3.28
2022-11-02T23:09:02.708Z,2.80
2022-11-02T23:11:30.645Z,3.70
2022-11-02T23:14:02.164Z,3.17
2022-11-02T23:16:35.628Z,2.75
2022-11-02T23:19:28.920Z,2.95
2022-11-02T23:22:22.035Z,3.67
2022-11-02T23:25:06.979Z,3.63
2022-11-02T23:27:34.620Z,3.75
2022-11-02T23:30:19.694Z,3.80
2022-11-02T23:32:46.024Z,3.67
2022-11-02T23:35:30.965Z,4.20
2022-11-02T23:38:02.161Z,4.32
2022-11-02T23:40:28.479Z,4.57
2022-11-02T23:42:54.811Z,3.47
2022-11-02T23:45:21.086Z,3.85
2022-11-02T23:48:02.774Z,3.30
2022-11-02T23:50:48.827Z,3.60
2022-11-02T23:53:35.012Z,3.83
2022-11-02T23:56:20.150Z,4.03
2022-11-02T23:58:46.586Z,4.25
